| time (UTC) | temp F | wind direction | speed MPH | gust MPH | rain 1hr in | rain 24hr in | rain mn in | humidity % | barometer mb |
| 20260510044723 | 68 | 262 | 0.0 | 0.0 | 0.07 | 0.02 | 0.02 | 99 | 1014.4 |
| 20260510044221 | 68 | 264 | 0.0 | 0.0 | 0.07 | 0.02 | 0.02 | 99 | 1014.3 |
| 20260510043716 | 68 | 263 | 0.0 | 0.0 | 0.00 | 0.01 | 0.01 | 99 | 1014.3 |
| 20260510043213 | 68 | 265 | 0.0 | 0.0 | 0.00 | 0.01 | 0.01 | 99 | 1014.0 |
| 20260510042710 | 68 | 267 | 0.0 | 0.0 | 0.00 | 0.01 | 0.01 | 99 | 1014.3 |
| 20260510042206 | 68 | 267 | 0.0 | 0.0 | 0.05 | 0.01 | 0.01 | 99 | 1014.2 |
| 20260510041704 | 68 | 269 | 0.0 | 0.0 | 0.05 | 0.01 | 0.01 | 99 | 1014.0 |
| 20260510041201 | 68 | 269 | 0.0 | 0.0 | 0.05 | 0.01 | 0.01 | 99 | 1014.2 |
| 20260510040657 | 68 | 268 | 0.0 | 0.0 | 0.00 | 0.00 | 0.00 | 99 | 1013.9 |
| 20260510040154 | 68 | 271 | 0.0 | 0.0 | 0.00 | 0.00 | 0.00 | 99 | 1014.1 |
| 20260510035650 | 68 | 264 | 0.0 | 1.0 | 0.00 | 0.19 | 0.19 | 99 | 1014.1 |
| 20260510035145 | 68 | 306 | 0.0 | 0.0 | 0.00 | 0.19 | 0.19 | 99 | 1014.1 |
| 20260510034642 | 68 | 41 | 0.0 | 0.0 | 0.00 | 0.19 | 0.19 | 99 | 1013.8 |
| 20260510034139 | 68 | 313 | 0.0 | 0.0 | 0.00 | 0.19 | 0.19 | 99 | 1013.5 |
| 20260510033635 | 68 | 245 | 0.0 | 0.0 | 0.00 | 0.19 | 0.19 | 99 | 1013.4 |
| 20260510033133 | 68 | 182 | 0.0 | 0.0 | 0.00 | 0.19 | 0.19 | 99 | 1013.5 |
| 20260510032630 | 68 | 204 | 0.0 | 0.0 | 0.00 | 0.19 | 0.19 | 99 | 1013.5 |
| 20260510032125 | 68 | 213 | 2.0 | 2.0 | 0.00 | 0.19 | 0.19 | 99 | 1013.8 |
| 20260510031620 | 68 | 263 | 0.0 | 1.0 | 0.00 | 0.19 | 0.19 | 99 | 1013.7 |
| 20260510031117 | 68 | 259 | 0.0 | 0.0 | 0.00 | 0.19 | 0.19 | 99 | 1013.8 |
| 20260510030611 | 68 | 250 | 0.0 | 0.0 | 0.00 | 0.19 | 0.19 | 99 | 1013.7 |
| 20260510030109 | 68 | 262 | 0.0 | 0.0 | 0.00 | 0.19 | 0.19 | 99 | 1013.5 |
| 20260510025606 | 68 | 256 | 0.0 | 0.0 | 0.00 | 0.19 | 0.19 | 99 | 1013.4 |
| 20260510025104 | 68 | 248 | 0.0 | 1.0 | 0.00 | 0.19 | 0.19 | 99 | 1013.4 |
| 20260510024600 | 68 | 236 | 0.0 | 1.0 | 0.00 | 0.19 | 0.19 | 99 | 1013.3 |
| 20260510024057 | 68 | 247 | 0.0 | 0.0 | 0.00 | 0.19 | 0.19 | 99 | 1013.2 |
| 20260510023553 | 68 | 261 | 0.0 | 0.0 | 0.00 | 0.19 | 0.19 | 99 | 1013.4 |
| 20260510023050 | 68 | 195 | 0.0 | 0.0 | 0.00 | 0.19 | 0.19 | 99 | 1013.4 |
| 20260510022544 | 68 | 190 | 0.0 | 0.0 | 0.00 | 0.19 | 0.19 | 99 | 1013.3 |
| 20260510022043 | 68 | 305 | 0.0 | 0.0 | 0.00 | 0.19 | 0.19 | 99 | 1013.1 |
| 20260510021540 | 68 | 306 | 0.0 | 0.0 | 0.00 | 0.19 | 0.19 | 99 | 1013.4 |
| 20260510021038 | 68 | 306 | 0.0 | 0.0 | 0.00 | 0.19 | 0.19 | 99 | 1013.3 |
| 20260510020532 | 68 | 306 | 0.0 | 0.0 | 0.00 | 0.19 | 0.19 | 99 | 1013.4 |
| 20260510020028 | 68 | 306 | 0.0 | 0.0 | 0.00 | 0.19 | 0.19 | 99 | 1013.2 |
| 20260510015523 | 68 | 306 | 0.0 | 0.0 | 0.00 | 0.19 | 0.19 | 99 | 1013.3 |
| 20260510015020 | 68 | 307 | 0.0 | 0.0 | 0.00 | 0.19 | 0.19 | 99 | 1013.2 |
| 20260510014517 | 68 | 294 | 0.0 | 0.0 | 0.00 | 0.19 | 0.19 | 99 | 1013.2 |
| 20260510014014 | 68 | 296 | 0.0 | 0.0 | 0.00 | 0.19 | 0.19 | 99 | 1013.0 |
| 20260510013508 | 68 | 305 | 0.0 | 0.0 | 0.07 | 0.19 | 0.19 | 99 | 1013.1 |
| 20260510013004 | 68 | 300 | 0.0 | 0.0 | 0.00 | 0.18 | 0.18 | 99 | 1012.9 |
| 20260510012458 | 68 | 313 | 0.0 | 0.0 | 0.00 | 0.18 | 0.18 | 99 | 1013.2 |
| 20260510011954 | 68 | 283 | 0.0 | 0.0 | 0.00 | 0.18 | 0.18 | 99 | 1013.1 |
| 20260510011449 | 69 | 266 | 0.0 | 0.0 | 0.00 | 0.18 | 0.18 | 99 | 1013.0 |
| 20260510010945 | 69 | 262 | 0.0 | 0.0 | 0.00 | 0.18 | 0.18 | 99 | 1013.0 |
| 20260510010443 | 69 | 273 | 0.0 | 0.0 | 0.07 | 0.18 | 0.18 | 99 | 1012.9 |
| 20260510005939 | 69 | 328 | 0.0 | 0.0 | 0.07 | 0.18 | 0.18 | 99 | 1013.1 |
| 20260510005435 | 69 | 305 | 0.0 | 0.0 | 0.00 | 0.17 | 0.17 | 99 | 1013.0 |
| 20260510004933 | 69 | 209 | 1.0 | 2.0 | 0.05 | 0.17 | 0.17 | 99 | 1013.1 |
| 20260510004430 | 69 | 235 | 0.0 | 0.0 | 0.12 | 0.17 | 0.17 | 99 | 1013.1 |
| 20260510003928 | 69 | 198 | 2.0 | 2.0 | 0.07 | 0.16 | 0.16 | 99 | 1013.0 |
| 20260510003425 | 69 | 259 | 0.0 | 0.0 | 0.00 | 0.15 | 0.15 | 99 | 1013.0 |
| 20260510002924 | 69 | 266 | 0.0 | 0.0 | 0.00 | 0.15 | 0.15 | 99 | 1012.9 |
| 20260510002421 | 69 | 244 | 0.0 | 0.0 | 0.00 | 0.15 | 0.15 | 99 | 1012.9 |
| 20260510001918 | 69 | 251 | 0.0 | 0.0 | 0.00 | 0.15 | 0.15 | 99 | 1013.2 |
| 20260510001415 | 69 | 183 | 0.0 | 0.0 | 0.05 | 0.15 | 0.15 | 99 | 1013.1 |
| 20260510000912 | 69 | 284 | 0.0 | 0.0 | 0.05 | 0.15 | 0.15 | 99 | 1012.9 |
| 20260510000411 | 69 | 267 | 0.0 | 0.0 | 0.00 | 0.14 | 0.14 | 99 | 1012.7 |
| 20260509235905 | 69 | 266 | 0.0 | 0.0 | 0.00 | 0.14 | 0.14 | 99 | 1012.8 |
| 20260509235402 | 69 | 257 | 0.0 | 1.0 | 0.00 | 0.14 | 0.14 | 99 | 1012.5 |
| 20260509234858 | 69 | 266 | 0.0 | 0.0 | 0.00 | 0.14 | 0.14 | 99 | 1012.5 |
| 20260509234355 | 70 | 244 | 1.0 | 1.0 | 0.00 | 0.14 | 0.14 | 99 | 1012.5 |
| 20260509233853 | 70 | 250 | 0.0 | 0.0 | 0.00 | 0.14 | 0.14 | 99 | 1012.5 |
| 20260509233351 | 70 | 231 | 0.0 | 0.0 | 0.00 | 0.14 | 0.14 | 99 | 1012.6 |
| 20260509232846 | 70 | 322 | 0.0 | 0.0 | 0.00 | 0.14 | 0.14 | 99 | 1012.6 |
| 20260509232344 | 69 | 322 | 0.0 | 0.0 | 0.00 | 0.14 | 0.14 | 99 | 1012.3 |
| 20260509231840 | 69 | 322 | 0.0 | 0.0 | 0.00 | 0.14 | 0.14 | 99 | 1012.1 |
| 20260509231337 | 69 | 322 | 0.0 | 0.0 | 0.00 | 0.14 | 0.14 | 99 | 1012.0 |
| 20260509230835 | 69 | 323 | 0.0 | 0.0 | 0.07 | 0.14 | 0.14 | 99 | 1011.7 |
| 20260509230332 | 69 | 323 | 0.0 | 0.0 | 0.07 | 0.14 | 0.14 | 99 | 1011.8 |
| 20260509225826 | 70 | 302 | 0.0 | 0.0 | 0.05 | 0.13 | 0.13 | 99 | 1012.0 |
| 20260509225324 | 70 | 301 | 0.0 | 0.0 | 0.05 | 0.13 | 0.13 | 99 | 1012.2 |
| 20260509224820 | 70 | 319 | 0.0 | 0.0 | 0.12 | 0.12 | 0.12 | 99 | 1012.2 |
| 20260509224316 | 70 | 269 | 0.0 | 0.0 | 0.12 | 0.12 | 0.12 | 99 | 1012.5 |
| 20260509223813 | 70 | 204 | 1.0 | 2.0 | 0.00 | 0.10 | 0.10 | 99 | 1012.2 |
| 20260509223310 | 70 | 252 | 0.0 | 0.0 | 0.00 | 0.10 | 0.10 | 99 | 1012.4 |
| 20260509222807 | 70 | 273 | 0.0 | 0.0 | 0.00 | 0.10 | 0.10 | 99 | 1012.2 |
| 20260509222306 | 70 | 303 | 0.0 | 0.0 | 0.00 | 0.10 | 0.10 | 99 | 1012.1 |
| 20260509221758 | 70 | 303 | 0.0 | 0.0 | 0.00 | 0.10 | 0.10 | 99 | 1012.1 |
| 20260509221255 | 70 | 267 | 0.0 | 0.0 | 0.00 | 0.10 | 0.10 | 99 | 1012.1 |
| 20260509220750 | 70 | 231 | 0.0 | 0.0 | 0.00 | 0.10 | 0.10 | 98 | 1012.2 |
| 20260509220247 | 70 | 304 | 0.0 | 0.0 | 0.00 | 0.10 | 0.10 | 98 | 1012.2 |
| 20260509215742 | 70 | 289 | 0.0 | 0.0 | 0.00 | 0.10 | 0.10 | 98 | 1012.3 |
| 20260509215239 | 71 | 295 | 0.0 | 0.0 | 0.00 | 0.10 | 0.10 | 98 | 1011.8 |
| 20260509214736 | 70 | 193 | 1.0 | 1.0 | 0.00 | 0.10 | 0.10 | 98 | 1011.9 |
| 20260509214234 | 71 | 165 | 1.0 | 2.0 | 0.00 | 0.10 | 0.10 | 98 | 1012.4 |
| 20260509213730 | 71 | 126 | 1.0 | 1.0 | 0.00 | 0.10 | 0.10 | 98 | 1012.6 |
| 20260509213226 | 71 | 276 | 0.0 | 0.0 | 0.00 | 0.10 | 0.10 | 98 | 1012.3 |
| 20260509212724 | 71 | 272 | 0.0 | 0.0 | 0.00 | 0.10 | 0.10 | 98 | 1012.3 |
| 20260509212220 | 71 | 274 | 0.0 | 0.0 | 0.00 | 0.10 | 0.10 | 98 | 1012.1 |
| 20260509211716 | 70 | 330 | 0.0 | 1.0 | 0.00 | 0.10 | 0.10 | 98 | 1011.9 |
| 20260509211213 | 70 | 8 | 1.0 | 1.0 | 0.07 | 0.10 | 0.10 | 98 | 1012.1 |
| 20260509210709 | 71 | 317 | 0.0 | 1.0 | 0.07 | 0.10 | 0.10 | 98 | 1012.0 |
| 20260509210207 | 71 | 327 | 0.0 | 0.0 | 0.00 | 0.09 | 0.09 | 98 | 1011.9 |
| 20260509205707 | 71 | 275 | 0.0 | 0.0 | 0.00 | 0.09 | 0.09 | 98 | 1011.9 |
| 20260509205206 | 71 | 160 | 1.0 | 1.0 | 0.00 | 0.09 | 0.09 | 98 | 1012.0 |
| 20260509204703 | 71 | 278 | 0.0 | 1.0 | 0.00 | 0.09 | 0.09 | 98 | 1012.3 |
| 20260509204159 | 71 | 249 | 0.0 | 0.0 | 0.00 | 0.09 | 0.09 | 98 | 1012.2 |
| 20260509203655 | 71 | 272 | 1.0 | 1.0 | 0.00 | 0.09 | 0.09 | 98 | 1012.2 |
| 20260509203154 | 71 | 195 | 1.0 | 2.0 | 0.00 | 0.09 | 0.09 | 98 | 1012.0 |
| 20260509202648 | 71 | 273 | 0.0 | 1.0 | 0.00 | 0.09 | 0.09 | 98 | 1012.1 |
| 20260509202144 | 71 | 309 | 0.0 | 0.0 | 0.00 | 0.09 | 0.09 | 98 | 1012.2 |
| 20260509201634 | 71 | 293 | 1.0 | 1.0 | 0.00 | 0.09 | 0.09 | 98 | 1012.1 |
| 20260509201131 | 71 | 269 | 2.0 | 2.0 | 0.00 | 0.09 | 0.09 | 98 | 1011.9 |
| 20260509200626 | 71 | 144 | 4.0 | 6.0 | 0.00 | 0.09 | 0.09 | 98 | 1011.8 |
| 20260509200117 | 71 | 187 | 4.0 | 5.0 | 0.00 | 0.09 | 0.09 | 98 | 1011.9 |
| 20260509195613 | 71 | 222 | 3.0 | 5.0 | 0.00 | 0.09 | 0.09 | 98 | 1012.1 |
| 20260509195108 | 71 | 236 | 1.0 | 1.0 | 0.00 | 0.09 | 0.09 | 98 | 1012.1 |
| 20260509194607 | 71 | 197 | 2.0 | 2.0 | 0.00 | 0.09 | 0.09 | 98 | 1011.9 |
| 20260509194105 | 71 | 251 | 3.0 | 5.0 | 0.00 | 0.09 | 0.09 | 97 | 1012.1 |
| 20260509193601 | 70 | 202 | 2.0 | 2.0 | 0.00 | 0.09 | 0.09 | 97 | 1012.3 |
| 20260509193057 | 70 | 196 | 3.0 | 3.0 | 0.00 | 0.09 | 0.09 | 97 | 1012.1 |
| 20260509192554 | 70 | 198 | 2.0 | 2.0 | 0.00 | 0.09 | 0.09 | 97 | 1012.3 |
| 20260509192049 | 71 | 269 | 0.0 | 0.0 | 0.00 | 0.09 | 0.09 | 97 | 1012.5 |
| 20260509191548 | 71 | 273 | 0.0 | 0.0 | 0.00 | 0.09 | 0.09 | 97 | 1012.6 |
| 20260509191044 | 71 | 157 | 2.0 | 2.0 | 0.05 | 0.09 | 0.09 | 97 | 1012.6 |
| 20260509190541 | 71 | 256 | 0.0 | 1.0 | 0.05 | 0.09 | 0.09 | 97 | 1012.9 |
| 20260509190040 | 71 | 272 | 0.0 | 0.0 | 0.00 | 0.08 | 0.08 | 97 | 1012.8 |
| 20260509185537 | 71 | 215 | 1.0 | 2.0 | 0.00 | 0.08 | 0.08 | 96 | 1012.9 |
| 20260509185033 | 71 | 297 | 0.0 | 0.0 | 0.07 | 0.08 | 0.08 | 96 | 1012.8 |
| 20260509184531 | 71 | 306 | 0.0 | 0.0 | 0.07 | 0.08 | 0.08 | 96 | 1012.9 |
| 20260509184027 | 72 | 297 | 1.0 | 2.0 | 0.00 | 0.07 | 0.07 | 96 | 1012.7 |
| 20260509183522 | 71 | 320 | 0.0 | 0.0 | 0.05 | 0.07 | 0.07 | 95 | 1012.9 |
| 20260509183019 | 71 | 283 | 0.0 | 1.0 | 0.05 | 0.07 | 0.07 | 95 | 1012.9 |
| 20260509182515 | 71 | 247 | 0.0 | 1.0 | 0.07 | 0.06 | 0.06 | 95 | 1013.0 |
| 20260509182012 | 72 | 91 | 1.0 | 1.0 | 0.07 | 0.06 | 0.06 | 94 | 1013.1 |
| 20260509181510 | 72 | 79 | 1.0 | 2.0 | 0.07 | 0.05 | 0.05 | 93 | 1013.1 |
| 20260509181008 | 72 | 270 | 1.0 | 1.0 | 0.12 | 0.05 | 0.05 | 92 | 1013.1 |
| 20260509180502 | 73 | 125 | 0.0 | 0.0 | 0.12 | 0.04 | 0.04 | 91 | 1013.1 |
| 20260509180000 | 74 | 194 | 0.0 | 1.0 | 0.12 | 0.03 | 0.03 | 90 | 1013.3 |
| 20260509175456 | 75 | 210 | 0.0 | 0.0 | 0.05 | 0.02 | 0.02 | 89 | 1013.1 |
| 20260509174953 | 75 | 298 | 1.0 | 1.0 | 0.07 | 0.01 | 0.01 | 88 | 1013.0 |
| 20260509174449 | 76 | 173 | 0.0 | 0.0 | 0.07 | 0.01 | 0.01 | 86 | 1013.4 |
| 20260509173945 | 76 | 159 | 1.0 | 1.0 | 0.00 | 0.00 | 0.00 | 85 | 1013.5 |
| 20260509173444 | 76 | 131 | 2.0 | 3.0 | 0.00 | 0.00 | 0.00 | 85 | 1013.1 |
| 20260509172942 | 77 | 351 | 1.0 | 2.0 | 0.00 | 0.00 | 0.00 | 86 | 1013.1 |
| 20260509172439 | 77 | 158 | 1.0 | 1.0 | 0.00 | 0.00 | 0.00 | 85 | 1013.1 |
| 20260509171934 | 78 | 19 | 0.0 | 0.0 | 0.00 | 0.00 | 0.00 | 85 | 1012.9 |
| 20260509171430 | 78 | 333 | 1.0 | 1.0 | 0.00 | 0.00 | 0.00 | 85 | 1013.2 |
| 20260509170927 | 78 | 44 | 0.0 | 1.0 | 0.00 | 0.00 | 0.00 | 86 | 1012.9 |
| 20260509170422 | 77 | 238 | 0.0 | 0.0 | 0.00 | 0.00 | 0.00 | 86 | 1012.8 |
| 20260509165919 | 77 | 292 | 1.0 | 1.0 | 0.00 | 0.00 | 0.00 | 86 | 1012.9 |
| 20260509165413 | 77 | 202 | 0.0 | 1.0 | 0.00 | 0.00 | 0.00 | 86 | 1012.8 |
| 20260509164909 | 77 | 178 | 1.0 | 1.0 | 0.00 | 0.00 | 0.00 | 86 | 1012.8 |
| 20260509164405 | 77 | 186 | 0.0 | 1.0 | 0.00 | 0.00 | 0.00 | 86 | 1013.1 |
| 20260509163901 | 77 | 237 | 0.0 | 1.0 | 0.00 | 0.00 | 0.00 | 86 | 1013.2 |
| 20260509163358 | 77 | 326 | 0.0 | 1.0 | 0.00 | 0.00 | 0.00 | 86 | 1013.3 |
| 20260509162857 | 77 | 203 | 2.0 | 3.0 | 0.00 | 0.00 | 0.00 | 85 | 1013.3 |
| 20260509162356 | 77 | 260 | 1.0 | 1.0 | 0.00 | 0.00 | 0.00 | 85 | 1013.1 |
| 20260509161851 | 77 | 170 | 2.0 | 2.0 | 0.00 | 0.00 | 0.00 | 84 | 1013.2 |
| 20260509161348 | 78 | 166 | 3.0 | 5.0 | 0.00 | 0.00 | 0.00 | 85 | 1013.3 |
| 20260509160844 | 78 | 194 | 3.0 | 3.0 | 0.00 | 0.00 | 0.00 | 84 | 1012.8 |
| 20260509160339 | 77 | 146 | 3.0 | 3.0 | 0.00 | 0.00 | 0.00 | 85 | 1012.9 |
| 20260509155835 | 77 | 231 | 2.0 | 2.0 | 0.00 | 0.00 | 0.00 | 86 | 1013.1 |
| 20260509155332 | 77 | 266 | 1.0 | 1.0 | 0.00 | 0.00 | 0.00 | 86 | 1013.2 |
| 20260509154829 | 77 | 210 | 2.0 | 3.0 | 0.00 | 0.00 | 0.00 | 86 | 1013.3 |
| 20260509154325 | 77 | 159 | 2.0 | 2.0 | 0.00 | 0.00 | 0.00 | 85 | 1013.1 |
| 20260509153822 | 77 | 292 | 1.0 | 1.0 | 0.00 | 0.00 | 0.00 | 86 | 1013.3 |
| 20260509153319 | 77 | 222 | 0.0 | 1.0 | 0.00 | 0.00 | 0.00 | 86 | 1013.4 |
| 20260509152815 | 77 | 182 | 2.0 | 2.0 | 0.00 | 0.00 | 0.00 | 86 | 1012.9 |
| 20260509152312 | 77 | 275 | 1.0 | 2.0 | 0.00 | 0.00 | 0.00 | 87 | 1013.3 |
| 20260509151809 | 76 | 318 | 1.0 | 1.0 | 0.00 | 0.00 | 0.00 | 87 | 1013.3 |
| 20260509151305 | 76 | 274 | 0.0 | 1.0 | 0.00 | 0.00 | 0.00 | 87 | 1013.4 |
| 20260509150804 | 75 | 184 | 3.0 | 5.0 | 0.00 | 0.00 | 0.00 | 87 | 1013.3 |
| 20260509150301 | 75 | 233 | 0.0 | 1.0 | 0.00 | 0.00 | 0.00 | 87 | 1013.5 |
| 20260509145758 | 75 | 167 | 2.0 | 2.0 | 0.00 | 0.00 | 0.00 | 88 | 1013.7 |
| 20260509145257 | 75 | 249 | 1.0 | 1.0 | 0.00 | 0.00 | 0.00 | 88 | 1013.6 |
| 20260509144754 | 75 | 290 | 0.0 | 1.0 | 0.00 | 0.00 | 0.00 | 89 | 1013.7 |
| 20260509144251 | 75 | 179 | 1.0 | 2.0 | 0.00 | 0.00 | 0.00 | 89 | 1013.4 |
| 20260509143748 | 75 | 281 | 0.0 | 0.0 | 0.00 | 0.00 | 0.00 | 89 | 1013.8 |
| 20260509143245 | 75 | 134 | 1.0 | 2.0 | 0.00 | 0.00 | 0.00 | 89 | 1013.9 |
| 20260509142741 | 75 | 250 | 1.0 | 1.0 | 0.00 | 0.00 | 0.00 | 89 | 1013.7 |
| 20260509142237 | 74 | 246 | 0.0 | 1.0 | 0.00 | 0.00 | 0.00 | 90 | 1013.6 |
| 20260509141733 | 74 | 218 | 0.0 | 0.0 | 0.00 | 0.00 | 0.00 | 91 | 1013.5 |
| 20260509141231 | 74 | 104 | 2.0 | 2.0 | 0.00 | 0.00 | 0.00 | 91 | 1013.5 |
| 20260509140727 | 74 | 274 | 1.0 | 1.0 | 0.00 | 0.00 | 0.00 | 92 | 1013.7 |
| 20260509140225 | 74 | 195 | 1.0 | 1.0 | 0.00 | 0.00 | 0.00 | 92 | 1013.4 |
| 20260509135722 | 74 | 286 | 0.0 | 0.0 | 0.00 | 0.00 | 0.00 | 94 | 1013.5 |
| 20260509135220 | 73 | 274 | 0.0 | 0.0 | 0.00 | 0.00 | 0.00 | 94 | 1013.5 |
| 20260509134717 | 73 | 205 | 1.0 | 2.0 | 0.00 | 0.00 | 0.00 | 95 | 1013.3 |
| 20260509134214 | 73 | 255 | 0.0 | 1.0 | 0.00 | 0.00 | 0.00 | 96 | 1013.3 |
| 20260509133711 | 73 | 191 | 1.0 | 2.0 | 0.00 | 0.00 | 0.00 | 96 | 1013.5 |
| 20260509133208 | 73 | 190 | 3.0 | 3.0 | 0.00 | 0.00 | 0.00 | 96 | 1013.4 |
| 20260509132706 | 72 | 277 | 0.0 | 0.0 | 0.00 | 0.00 | 0.00 | 97 | 1013.3 |
| 20260509132204 | 72 | 180 | 2.0 | 3.0 | 0.00 | 0.00 | 0.00 | 98 | 1013.5 |
| 20260509131700 | 72 | 260 | 1.0 | 2.0 | 0.00 | 0.00 | 0.00 | 98 | 1013.4 |
| 20260509131152 | 72 | 240 | 1.0 | 2.0 | 0.00 | 0.00 | 0.00 | 98 | 1013.1 |
| 20260509130648 | 72 | 230 | 1.0 | 1.0 | 0.00 | 0.00 | 0.00 | 98 | 1013.3 |
| 20260509130144 | 72 | 179 | 2.0 | 2.0 | 0.00 | 0.00 | 0.00 | 98 | 1013.5 |
| 20260509125641 | 71 | 259 | 0.0 | 0.0 | 0.00 | 0.00 | 0.00 | 98 | 1013.1 |
| 20260509125138 | 71 | 261 | 0.0 | 0.0 | 0.00 | 0.00 | 0.00 | 99 | 1013.2 |
| 20260509124634 | 71 | 201 | 1.0 | 2.0 | 0.00 | 0.00 | 0.00 | 99 | 1013.1 |
| 20260509124131 | 71 | 257 | 1.0 | 1.0 | 0.00 | 0.00 | 0.00 | 99 | 1013.3 |
| 20260509123629 | 72 | 285 | 0.0 | 0.0 | 0.00 | 0.00 | 0.00 | 99 | 1013.4 |
| 20260509123126 | 71 | 260 | 0.0 | 1.0 | 0.00 | 0.00 | 0.00 | 99 | 1013.1 |
| 20260509122621 | 71 | 276 | 0.0 | 1.0 | 0.00 | 0.00 | 0.00 | 99 | 1013.0 |
| 20260509122119 | 71 | 162 | 3.0 | 3.0 | 0.00 | 0.00 | 0.00 | 99 | 1012.9 |
| 20260509121615 | 70 | 214 | 0.0 | 0.0 | 0.00 | 0.00 | 0.00 | 99 | 1012.7 |
| 20260509121113 | 70 | 220 | 0.0 | 0.0 | 0.00 | 0.00 | 0.00 | 99 | 1012.7 |
| 20260509120611 | 70 | 224 | 0.0 | 0.0 | 0.00 | 0.00 | 0.00 | 99 | 1012.6 |
| 20260509120109 | 71 | 244 | 0.0 | 0.0 | 0.00 | 0.00 | 0.00 | 99 | 1012.5 |
| 20260509115606 | 70 | 246 | 0.0 | 0.0 | 0.00 | 0.00 | 0.00 | 99 | 1012.9 |
| 20260509115104 | 69 | 246 | 0.0 | 0.0 | 0.00 | 0.00 | 0.00 | 99 | 1013.0 |
| 20260509114602 | 68 | 246 | 0.0 | 0.0 | 0.00 | 0.00 | 0.00 | 99 | 1012.9 |
| 20260509114100 | 68 | 246 | 0.0 | 0.0 | 0.00 | 0.00 | 0.00 | 99 | 1012.7 |
| 20260509113558 | 68 | 246 | 0.0 | 0.0 | 0.00 | 0.00 | 0.00 | 99 | 1012.8 |
| 20260509113055 | 68 | 246 | 0.0 | 0.0 | 0.00 | 0.00 | 0.00 | 99 | 1012.5 |
| 20260509112552 | 67 | 246 | 0.0 | 0.0 | 0.00 | 0.00 | 0.00 | 99 | 1012.5 |
| 20260509112049 | 67 | 246 | 0.0 | 0.0 | 0.00 | 0.00 | 0.00 | 99 | 1012.6 |
| 20260509111546 | 67 | 245 | 0.0 | 0.0 | 0.00 | 0.00 | 0.00 | 99 | 1012.5 |
| 20260509111043 | 67 | 244 | 0.0 | 0.0 | 0.00 | 0.00 | 0.00 | 99 | 1012.6 |
| 20260509110540 | 68 | 249 | 0.0 | 0.0 | 0.00 | 0.00 | 0.00 | 99 | 1012.4 |
| 20260509110037 | 67 | 251 | 0.0 | 0.0 | 0.00 | 0.00 | 0.00 | 99 | 1012.2 |
| 20260509105535 | 67 | 251 | 0.0 | 0.0 | 0.00 | 0.00 | 0.00 | 99 | 1012.4 |
| 20260509105032 | 67 | 251 | 0.0 | 0.0 | 0.00 | 0.00 | 0.00 | 99 | 1012.4 |
| 20260509104529 | 67 | 251 | 0.0 | 0.0 | 0.00 | 0.00 | 0.00 | 99 | 1012.0 |
| 20260509104026 | 67 | 251 | 0.0 | 0.0 | 0.00 | 0.00 | 0.00 | 99 | 1012.0 |
| 20260509103524 | 67 | 251 | 0.0 | 0.0 | 0.00 | 0.00 | 0.00 | 99 | 1012.1 |
| 20260509103022 | 67 | 251 | 0.0 | 0.0 | 0.00 | 0.00 | 0.00 | 99 | 1012.1 |
| 20260509102519 | 67 | 251 | 0.0 | 0.0 | 0.00 | 0.00 | 0.00 | 99 | 1011.8 |
| 20260509102015 | 67 | 250 | 0.0 | 0.0 | 0.00 | 0.00 | 0.00 | 99 | 1011.5 |
| 20260509101512 | 67 | 250 | 0.0 | 0.0 | 0.00 | 0.00 | 0.00 | 99 | 1011.5 |
| 20260509101009 | 67 | 220 | 0.0 | 0.0 | 0.00 | 0.00 | 0.00 | 99 | 1011.6 |
| 20260509100507 | 67 | 255 | 0.0 | 0.0 | 0.00 | 0.00 | 0.00 | 99 | 1011.5 |
| 20260509100004 | 67 | 280 | 0.0 | 0.0 | 0.00 | 0.00 | 0.00 | 99 | 1011.6 |
| 20260509095459 | 67 | 272 | 0.0 | 0.0 | 0.00 | 0.00 | 0.00 | 99 | 1011.4 |
| 20260509094957 | 67 | 151 | 2.0 | 3.0 | 0.00 | 0.00 | 0.00 | 99 | 1010.9 |
| 20260509094453 | 66 | 162 | 4.0 | 5.0 | 0.00 | 0.00 | 0.00 | 99 | 1011.2 |
| 20260509093951 | 66 | 173 | 4.0 | 5.0 | 0.00 | 0.00 | 0.00 | 99 | 1011.5 |
| 20260509093449 | 66 | 154 | 4.0 | 5.0 | 0.00 | 0.00 | 0.00 | 99 | 1011.7 |
| 20260509092946 | 67 | 180 | 0.0 | 0.0 | 0.00 | 0.00 | 0.00 | 99 | 1011.9 |
| 20260509092444 | 68 | 290 | 0.0 | 0.0 | 0.00 | 0.00 | 0.00 | 99 | 1012.1 |
| 20260509091942 | 68 | 291 | 0.0 | 0.0 | 0.00 | 0.00 | 0.00 | 99 | 1012.0 |
| 20260509091438 | 68 | 291 | 0.0 | 0.0 | 0.00 | 0.00 | 0.00 | 99 | 1012.1 |
| 20260509090936 | 68 | 292 | 0.0 | 0.0 | 0.00 | 0.00 | 0.00 | 99 | 1011.8 |
| 20260509090433 | 68 | 293 | 0.0 | 0.0 | 0.00 | 0.00 | 0.00 | 99 | 1011.9 |
| 20260509085931 | 68 | 289 | 0.0 | 0.0 | 0.00 | 0.00 | 0.00 | 99 | 1011.9 |
| 20260509085427 | 68 | 268 | 0.0 | 0.0 | 0.00 | 0.00 | 0.00 | 99 | 1012.2 |
| 20260509084923 | 68 | 268 | 0.0 | 0.0 | 0.00 | 0.00 | 0.00 | 99 | 1012.1 |
| 20260509084420 | 69 | 269 | 0.0 | 0.0 | 0.00 | 0.00 | 0.00 | 99 | 1012.5 |
| 20260509083918 | 69 | 264 | 0.0 | 0.0 | 0.00 | 0.00 | 0.00 | 99 | 1012.3 |
| 20260509083415 | 69 | 343 | 0.0 | 0.0 | 0.00 | 0.00 | 0.00 | 99 | 1012.2 |
| 20260509082912 | 69 | 291 | 0.0 | 0.0 | 0.00 | 0.00 | 0.00 | 99 | 1012.1 |
| 20260509082409 | 69 | 334 | 1.0 | 1.0 | 0.00 | 0.00 | 0.00 | 99 | 1012.0 |
| 20260509081906 | 68 | 292 | 0.0 | 0.0 | 0.00 | 0.00 | 0.00 | 99 | 1012.1 |
| 20260509081403 | 68 | 300 | 0.0 | 0.0 | 0.00 | 0.00 | 0.00 | 99 | 1012.0 |
| 20260509080900 | 68 | 299 | 0.0 | 0.0 | 0.00 | 0.00 | 0.00 | 99 | 1011.9 |
| 20260509080358 | 68 | 326 | 0.0 | 0.0 | 0.00 | 0.00 | 0.00 | 99 | 1011.9 |
| 20260509075857 | 68 | 300 | 0.0 | 0.0 | 0.00 | 0.00 | 0.00 | 99 | 1011.8 |
| 20260509075353 | 68 | 289 | 0.0 | 0.0 | 0.00 | 0.00 | 0.00 | 99 | 1011.8 |
| 20260509074850 | 68 | 287 | 0.0 | 0.0 | 0.00 | 0.00 | 0.00 | 99 | 1012.1 |
| 20260509074348 | 68 | 285 | 0.0 | 0.0 | 0.00 | 0.00 | 0.00 | 99 | 1012.2 |
| 20260509073844 | 68 | 284 | 0.0 | 0.0 | 0.00 | 0.00 | 0.00 | 99 | 1012.0 |
| 20260509073341 | 67 | 268 | 0.0 | 0.0 | 0.00 | 0.00 | 0.00 | 99 | 1011.9 |
| 20260509072837 | 67 | 265 | 0.0 | 0.0 | 0.00 | 0.00 | 0.00 | 99 | 1011.9 |
| 20260509072334 | 67 | 211 | 0.0 | 0.0 | 0.00 | 0.00 | 0.00 | 99 | 1012.1 |
| 20260509071830 | 68 | 168 | 0.0 | 0.0 | 0.00 | 0.00 | 0.00 | 99 | 1012.4 |
| 20260509071328 | 68 | 260 | 0.0 | 0.0 | 0.00 | 0.00 | 0.00 | 99 | 1012.7 |
| 20260509070825 | 68 | 310 | 0.0 | 0.0 | 0.00 | 0.00 | 0.00 | 99 | 1012.5 |
| 20260509070321 | 68 | 311 | 0.0 | 0.0 | 0.00 | 0.00 | 0.00 | 99 | 1012.8 |
| 20260509065818 | 68 | 292 | 0.0 | 0.0 | 0.00 | 0.00 | 0.00 | 99 | 1012.7 |
| 20260509065314 | 67 | 316 | 0.0 | 0.0 | 0.00 | 0.00 | 0.00 | 99 | 1012.6 |
| 20260509064810 | 67 | 11 | 0.0 | 0.0 | 0.00 | 0.00 | 0.00 | 99 | 1012.6 |
| 20260509064307 | 67 | 12 | 0.0 | 0.0 | 0.00 | 0.00 | 0.00 | 99 | 1012.3 |
| 20260509063804 | 67 | 12 | 0.0 | 0.0 | 0.00 | 0.00 | 0.00 | 99 | 1012.4 |
| 20260509063300 | 67 | 12 | 0.0 | 0.0 | 0.00 | 0.00 | 0.00 | 99 | 1012.4 |
| 20260509062758 | 67 | 12 | 0.0 | 0.0 | 0.00 | 0.00 | 0.00 | 99 | 1012.3 |
| 20260509062255 | 67 | 16 | 0.0 | 0.0 | 0.00 | 0.00 | 0.00 | 99 | 1012.0 |
| 20260509061752 | 67 | 141 | 0.0 | 0.0 | 0.00 | 0.00 | 0.00 | 99 | 1011.8 |
| 20260509061250 | 67 | 141 | 0.0 | 0.0 | 0.00 | 0.00 | 0.00 | 99 | 1012.0 |
| 20260509060747 | 66 | 139 | 1.0 | 1.0 | 0.00 | 0.00 | 0.00 | 99 | 1012.4 |
| 20260509060244 | 66 | 201 | 2.0 | 2.0 | 0.00 | 0.00 | 0.00 | 99 | 1012.5 |
| 20260509055739 | 66 | 162 | 3.0 | 3.0 | 0.00 | 0.00 | 0.00 | 99 | 1012.4 |
| 20260509055235 | 67 | 164 | 2.0 | 2.0 | 0.00 | 0.00 | 0.00 | 99 | 1012.8 |
| 20260509054732 | 67 | 203 | 0.0 | 0.0 | 0.00 | 0.00 | 0.00 | 99 | 1012.9 |
| 20260509054229 | 67 | 260 | 0.0 | 0.0 | 0.00 | 0.00 | 0.00 | 99 | 1013.3 |
| 20260509053728 | 67 | 208 | 1.0 | 3.0 | 0.00 | 0.00 | 0.00 | 99 | 1013.5 |
| 20260509053224 | 67 | 197 | 3.0 | 3.0 | 0.00 | 0.00 | 0.00 | 99 | 1013.1 |
| 20260509052722 | 67 | 287 | 0.0 | 0.0 | 0.00 | 0.00 | 0.00 | 99 | 1013.1 |
| 20260509052219 | 67 | 299 | 0.0 | 0.0 | 0.00 | 0.00 | 0.00 | 99 | 1013.5 |
| 20260509051717 | 67 | 306 | 0.0 | 0.0 | 0.00 | 0.00 | 0.00 | 99 | 1013.4 |
| 20260509051215 | 67 | 280 | 0.0 | 0.0 | 0.00 | 0.00 | 0.00 | 99 | 1013.7 |
| 20260509050712 | 67 | 280 | 0.0 | 0.0 | 0.00 | 0.00 | 0.00 | 99 | 1013.5 |
| 20260509050208 | 67 | 277 | 0.0 | 0.0 | 0.00 | 0.00 | 0.00 | 99 | 1013.2 |
| 20260509045705 | 67 | 255 | 0.0 | 0.0 | 0.00 | 0.00 | 0.00 | 99 | 1013.2 |
| 20260509045202 | 67 | 255 | 0.0 | 0.0 | 0.00 | 0.00 | 0.00 | 99 | 1013.0 |